createdAt,value
2023-06-04T00:02:19.253Z,20.60
2023-06-04T00:04:46.378Z,20.60
2023-06-04T00:07:13.456Z,20.50
2023-06-04T00:09:40.428Z,20.40
2023-06-04T00:12:07.719Z,20.40
2023-06-04T00:14:34.615Z,20.40
2023-06-04T00:17:01.584Z,20.30
2023-06-04T00:19:28.466Z,20.20
2023-06-04T00:21:55.847Z,20.30
2023-06-04T00:24:23.281Z,20.20
2023-06-04T00:26:50.155Z,20.20
2023-06-04T00:29:16.976Z,20.20
2023-06-04T00:31:43.901Z,20.10
2023-06-04T00:34:11.820Z,20.20
2023-06-04T00:36:38.966Z,20.10
2023-06-04T00:39:05.833Z,20.20
2023-06-04T00:41:32.744Z,20.10
2023-06-04T00:44:03.003Z,20.00
2023-06-04T00:46:32.364Z,20.00
2023-06-04T00:48:59.612Z,20.00
2023-06-04T00:51:27.224Z,20.00
2023-06-04T00:53:54.383Z,20.00
2023-06-04T00:56:21.241Z,20.00
2023-06-04T00:58:48.684Z,19.90
2023-06-04T01:01:46.396Z,19.90
2023-06-04T01:04:35.347Z,19.90
2023-06-04T01:07:05.233Z,19.90
2023-06-04T01:09:33.619Z,19.80
2023-06-04T01:12:02.911Z,19.80
2023-06-04T01:14:30.413Z,19.80
2023-06-04T01:17:04.310Z,19.70
2023-06-04T01:20:05.351Z,19.80
2023-06-04T01:22:43.773Z,19.80
2023-06-04T01:25:27.062Z,19.70
2023-06-04T01:27:57.236Z,19.70
2023-06-04T01:30:28.055Z,19.70
2023-06-04T01:32:58.551Z,19.70
2023-06-04T01:35:28.994Z,19.60
2023-06-04T01:37:57.048Z,19.70
2023-06-04T01:40:25.135Z,19.60
2023-06-04T01:42:52.206Z,19.60
2023-06-04T01:45:19.306Z,19.60
2023-06-04T01:47:46.149Z,19.60
2023-06-04T01:50:12.975Z,19.60
2023-06-04T01:52:40.952Z,19.50
2023-06-04T01:55:15.433Z,19.50
2023-06-04T01:57:45.216Z,19.50
2023-06-04T02:00:13.141Z,19.50
2023-06-04T02:02:42.787Z,19.50
2023-06-04T02:05:10.758Z,19.50
2023-06-04T02:07:42.194Z,19.40
2023-06-04T02:10:10.509Z,19.40
2023-06-04T02:12:40.022Z,19.30
2023-06-04T02:15:07.774Z,19.40
2023-06-04T02:17:38.707Z,19.30
2023-06-04T02:20:07.134Z,19.30
2023-06-04T02:22:34.046Z,19.30
2023-06-04T02:25:01.059Z,19.30
2023-06-04T02:27:28.284Z,19.30
2023-06-04T02:29:55.154Z,19.30
2023-06-04T02:32:22.115Z,19.30
2023-06-04T02:34:50.053Z,19.20
2023-06-04T02:37:16.911Z,19.20
2023-06-04T02:39:43.700Z,19.20
2023-06-04T02:42:10.535Z,19.30
2023-06-04T02:44:37.367Z,19.20
2023-06-04T02:47:05.003Z,19.20
2023-06-04T02:49:32.070Z,19.10
2023-06-04T02:51:58.984Z,19.20
2023-06-04T02:54:25.835Z,19.20
2023-06-04T02:56:53.347Z,19.10
2023-06-04T02:59:20.405Z,19.10
2023-06-04T03:01:47.377Z,19.10
2023-06-04T03:04:16.720Z,19.00
2023-06-04T03:06:47.464Z,19.00
2023-06-04T03:09:14.847Z,19.10
2023-06-04T03:11:41.963Z,19.00
2023-06-04T03:14:08.815Z,18.90
2023-06-04T03:16:35.668Z,19.00
2023-06-04T03:19:02.659Z,19.00
2023-06-04T03:21:30.286Z,18.90
2023-06-04T03:23:57.585Z,18.90
2023-06-04T03:26:24.590Z,18.90
2023-06-04T03:28:51.416Z,18.90
2023-06-04T03:31:18.367Z,18.90
2023-06-04T03:33:45.486Z,18.80
2023-06-04T03:36:12.345Z,18.80
2023-06-04T03:38:39.226Z,18.80
2023-06-04T03:41:06.267Z,18.80
2023-06-04T03:43:33.349Z,18.80
2023-06-04T03:46:00.317Z,18.80
2023-06-04T03:48:27.073Z,18.80
2023-06-04T03:50:54.022Z,18.80
2023-06-04T03:53:21.019Z,18.80
2023-06-04T03:55:47.901Z,18.90
2023-06-04T03:58:15.913Z,18.90
2023-06-04T04:00:42.812Z,18.90
2023-06-04T04:03:11.041Z,18.90
2023-06-04T04:05:38.083Z,18.90
2023-06-04T04:08:05.802Z,18.90
2023-06-04T04:10:32.721Z,18.90
2023-06-04T04:12:59.673Z,18.90
2023-06-04T04:15:26.783Z,19.00
2023-06-04T04:17:54.096Z,19.00
2023-06-04T04:20:21.046Z,19.00
2023-06-04T04:22:50.536Z,19.00
2023-06-04T04:25:18.256Z,19.10
2023-06-04T04:27:45.275Z,19.10
2023-06-04T04:30:13.854Z,19.20
2023-06-04T04:32:49.757Z,19.20
2023-06-04T04:35:19.232Z,19.20
2023-06-04T04:37:46.585Z,19.40
2023-06-04T04:40:14.666Z,19.40
2023-06-04T04:42:42.831Z,19.40
2023-06-04T04:45:10.619Z,19.50
2023-06-04T04:47:37.775Z,19.50
2023-06-04T04:50:05.250Z,19.50
2023-06-04T04:52:32.141Z,19.60
2023-06-04T04:54:59.122Z,19.70
2023-06-04T04:57:26.085Z,19.80
2023-06-04T04:59:53.174Z,19.80
2023-06-04T05:02:19.984Z,19.80
2023-06-04T05:04:46.924Z,19.80
2023-06-04T05:07:13.868Z,19.90
2023-06-04T05:09:41.628Z,19.90
2023-06-04T05:12:08.619Z,19.90
2023-06-04T05:14:38.125Z,19.90
2023-06-04T05:17:05.064Z,19.90
2023-06-04T05:19:33.923Z,20.00
2023-06-04T05:22:01.833Z,20.00
2023-06-04T05:24:29.822Z,20.00
2023-06-04T05:26:57.417Z,20.10
2023-06-04T05:29:24.916Z,20.20
2023-06-04T05:31:51.902Z,20.30
2023-06-04T05:34:19.477Z,20.40
2023-06-04T05:36:46.366Z,20.50
2023-06-04T05:39:13.344Z,20.60
2023-06-04T05:41:40.309Z,20.70
2023-06-04T05:44:07.116Z,20.80
2023-06-04T05:46:34.022Z,20.80
2023-06-04T05:49:01.134Z,20.90
2023-06-04T05:51:27.947Z,20.90
2023-06-04T05:53:54.814Z,21.00
2023-06-04T05:56:22.755Z,21.10
2023-06-04T05:58:53.473Z,21.00
2023-06-04T06:01:21.193Z,21.10
2023-06-04T06:03:48.040Z,21.10
2023-06-04T06:06:15.071Z,21.10
2023-06-04T06:08:41.938Z,21.10
2023-06-04T06:11:11.222Z,21.30
2023-06-04T06:13:38.528Z,21.40
2023-06-04T06:16:05.934Z,21.40
2023-06-04T06:18:33.804Z,21.40
2023-06-04T06:21:00.835Z,21.50
2023-06-04T06:23:27.795Z,21.50
2023-06-04T06:25:54.809Z,21.70
2023-06-04T06:28:21.729Z,21.70
2023-06-04T06:30:48.769Z,21.80
2023-06-04T06:33:15.989Z,22.10
2023-06-04T06:35:42.979Z,22.40
2023-06-04T06:38:09.769Z,22.60
2023-06-04T06:40:36.656Z,22.70
2023-06-04T06:43:03.655Z,22.90
2023-06-04T06:45:30.496Z,23.10
2023-06-04T06:47:57.396Z,23.40
2023-06-04T06:50:24.315Z,23.70
2023-06-04T06:52:51.221Z,23.80
2023-06-04T06:55:18.091Z,24.00
2023-06-04T06:57:45.919Z,24.00
2023-06-04T07:00:13.413Z,24.20
2023-06-04T07:02:40.357Z,24.20
2023-06-04T07:05:07.627Z,24.40
2023-06-04T07:07:34.460Z,24.40
2023-06-04T07:10:01.973Z,24.40
2023-06-04T07:12:28.847Z,24.60
2023-06-04T07:14:55.798Z,24.60
2023-06-04T07:17:23.177Z,24.60
2023-06-04T07:19:50.108Z,24.60
2023-06-04T07:22:16.964Z,24.70
2023-06-04T07:24:44.055Z,24.70
2023-06-04T07:27:15.233Z,24.70
2023-06-04T07:29:45.767Z,24.90
2023-06-04T07:32:13.831Z,24.90
2023-06-04T07:34:41.120Z,25.00
2023-06-04T07:37:09.052Z,25.20
2023-06-04T07:39:35.914Z,25.30
2023-06-04T07:42:03.023Z,25.40
2023-06-04T07:44:29.888Z,25.40
2023-06-04T07:46:56.723Z,25.40
2023-06-04T07:49:23.548Z,25.50
2023-06-04T07:51:50.501Z,25.40
2023-06-04T07:54:17.869Z,25.50
2023-06-04T07:56:44.824Z,25.60
2023-06-04T07:59:11.592Z,25.70
2023-06-04T08:01:38.379Z,25.80
2023-06-04T08:04:05.428Z,25.80
2023-06-04T08:06:32.391Z,25.90
2023-06-04T08:08:59.290Z,26.00
2023-06-04T08:11:26.173Z,26.10
2023-06-04T08:13:53.237Z,26.30
2023-06-04T08:16:20.111Z,26.50
2023-06-04T08:18:47.114Z,26.50
2023-06-04T08:21:14.164Z,26.80
2023-06-04T08:23:41.213Z,27.00
2023-06-04T08:26:09.164Z,27.20
2023-06-04T08:28:36.398Z,27.40
2023-06-04T08:31:03.316Z,27.60
2023-06-04T08:33:30.166Z,27.80
2023-06-04T08:35:56.976Z,27.70
2023-06-04T08:38:23.884Z,27.80
2023-06-04T08:40:53.763Z,27.80
2023-06-04T08:43:20.993Z,27.80
2023-06-04T08:45:52.108Z,27.90
2023-06-04T08:48:21.485Z,28.10
2023-06-04T08:50:50.484Z,28.30
2023-06-04T08:53:17.708Z,28.40
2023-06-04T08:55:44.585Z,28.50
2023-06-04T08:58:14.050Z,28.50
2023-06-04T09:00:41.076Z,28.50
2023-06-04T09:03:08.478Z,28.30
2023-06-04T09:05:37.351Z,28.10
2023-06-04T09:08:09.167Z,27.90
2023-06-04T09:10:38.458Z,27.90
2023-06-04T09:13:07.775Z,27.80
2023-06-04T09:15:34.586Z,27.90
2023-06-04T09:18:01.485Z,27.90
2023-06-04T09:20:29.131Z,28.00
2023-06-04T09:22:55.938Z,28.10
2023-06-04T09:25:31.848Z,28.20
2023-06-04T09:28:07.946Z,28.30
2023-06-04T09:30:34.907Z,28.30
2023-06-04T09:33:11.247Z,28.40
2023-06-04T09:35:38.296Z,28.40
2023-06-04T09:38:06.606Z,28.50
2023-06-04T09:40:40.695Z,28.40
2023-06-04T09:43:07.648Z,28.40
2023-06-04T09:45:36.533Z,28.40
2023-06-04T09:48:05.736Z,28.40
2023-06-04T09:50:38.064Z,28.40
2023-06-04T09:53:16.916Z,28.20
2023-06-04T09:55:44.476Z,28.20
2023-06-04T09:58:13.372Z,28.20
2023-06-04T10:00:41.403Z,28.30
2023-06-04T10:03:16.070Z,28.40
2023-06-04T10:05:43.953Z,28.40
2023-06-04T10:08:12.582Z,28.50
2023-06-04T10:10:39.840Z,28.60
2023-06-04T10:13:19.087Z,28.50
2023-06-04T10:15:49.730Z,28.70
2023-06-04T10:18:17.001Z,28.70
2023-06-04T10:20:44.132Z,28.90
2023-06-04T10:23:11.370Z,29.00
2023-06-04T10:25:38.677Z,29.00
2023-06-04T10:28:05.574Z,29.00
2023-06-04T10:30:32.607Z,29.10
2023-06-04T10:33:00.130Z,29.10
2023-06-04T10:35:34.874Z,29.30
2023-06-04T10:38:15.373Z,29.40
2023-06-04T10:40:42.502Z,29.40
2023-06-04T10:43:14.982Z,29.50
2023-06-04T10:45:41.966Z,29.50
2023-06-04T10:48:10.783Z,29.50
2023-06-04T10:50:50.069Z,29.50
2023-06-04T10:53:19.224Z,29.50
2023-06-04T10:55:50.225Z,29.50
2023-06-04T10:58:18.957Z,29.50
2023-06-04T11:00:48.394Z,29.50
2023-06-04T11:03:15.446Z,29.40
2023-06-04T11:05:44.614Z,29.30
2023-06-04T11:08:13.335Z,29.20
2023-06-04T11:10:42.416Z,29.00
2023-06-04T11:13:09.358Z,29.00
2023-06-04T11:15:47.759Z,28.90
2023-06-04T11:18:19.980Z,29.00
2023-06-04T11:20:48.862Z,29.00
2023-06-04T11:23:16.815Z,29.00
2023-06-04T11:25:45.295Z,29.00
2023-06-04T11:28:24.592Z,29.10
2023-06-04T11:30:58.162Z,29.30
2023-06-04T11:33:25.052Z,29.40
2023-06-04T11:35:51.936Z,29.50
2023-06-04T11:38:18.868Z,29.60
2023-06-04T11:40:55.374Z,29.80
2023-06-04T11:43:22.455Z,29.90
2023-06-04T11:45:49.286Z,30.00
2023-06-04T11:48:16.465Z,30.00
2023-06-04T11:50:43.378Z,30.20
2023-06-04T11:53:10.961Z,30.30
2023-06-04T11:55:40.052Z,30.40
2023-06-04T11:58:07.096Z,30.30
2023-06-04T12:00:34.160Z,30.30
2023-06-04T12:03:01.414Z,30.20
2023-06-04T12:05:32.773Z,30.20
2023-06-04T12:08:11.826Z,30.10
2023-06-04T12:10:43.713Z,30.10
2023-06-04T12:13:12.840Z,30.10
2023-06-04T12:15:39.987Z,30.10
2023-06-04T12:18:07.205Z,30.20
2023-06-04T12:20:34.209Z,30.30
2023-06-04T12:23:01.108Z,30.40
2023-06-04T12:25:29.562Z,30.60
2023-06-04T12:27:58.077Z,30.80
2023-06-04T12:30:40.369Z,31.00
2023-06-04T12:33:07.824Z,31.00
2023-06-04T12:35:35.696Z,30.90
2023-06-04T12:38:05.331Z,30.90
2023-06-04T12:40:32.273Z,30.80
2023-06-04T12:42:59.252Z,30.70
2023-06-04T12:45:26.265Z,30.70
2023-06-04T12:47:53.156Z,30.60
2023-06-04T12:50:22.427Z,30.60
2023-06-04T12:52:49.808Z,30.50
2023-06-04T12:55:16.846Z,30.60
2023-06-04T12:57:45.627Z,30.70
2023-06-04T13:00:13.167Z,30.80
2023-06-04T13:02:40.300Z,30.80
2023-06-04T13:05:07.507Z,30.80
2023-06-04T13:07:34.841Z,30.80
2023-06-04T13:10:01.790Z,30.80
2023-06-04T13:12:28.599Z,30.70
2023-06-04T13:14:57.208Z,30.50
2023-06-04T13:17:24.785Z,30.30
2023-06-04T13:19:52.986Z,30.10
2023-06-04T13:22:19.868Z,29.80
2023-06-04T13:24:46.783Z,29.70
2023-06-04T13:27:13.768Z,29.40
2023-06-04T13:29:41.918Z,29.40
2023-06-04T13:32:12.888Z,29.40
2023-06-04T13:34:39.981Z,29.40
2023-06-04T13:37:08.092Z,29.40
2023-06-04T13:39:34.952Z,29.40
2023-06-04T13:42:02.027Z,29.40
2023-06-04T13:44:30.062Z,29.40
2023-06-04T13:46:58.548Z,29.40
2023-06-04T13:49:26.356Z,29.40
2023-06-04T13:51:53.222Z,29.40
2023-06-04T13:54:20.125Z,29.40
2023-06-04T13:56:47.462Z,29.40
2023-06-04T13:59:14.396Z,29.40
2023-06-04T14:01:41.706Z,29.40
2023-06-04T14:04:08.565Z,29.40
2023-06-04T14:06:37.208Z,29.40
2023-06-04T14:09:04.965Z,29.30
2023-06-04T14:11:33.752Z,29.30
2023-06-04T14:14:00.650Z,29.40
2023-06-04T14:16:27.653Z,29.30
2023-06-04T14:18:54.806Z,29.40
2023-06-04T14:21:22.907Z,29.40
2023-06-04T14:23:51.480Z,29.50
2023-06-04T14:26:19.046Z,29.50
2023-06-04T14:28:45.996Z,29.50
2023-06-04T14:31:15.530Z,29.70
2023-06-04T14:33:42.385Z,29.60
2023-06-04T14:36:09.314Z,29.50
2023-06-04T14:38:36.108Z,29.40
2023-06-04T14:41:02.960Z,29.30
2023-06-04T14:43:30.110Z,29.10
2023-06-04T14:45:57.082Z,28.80
2023-06-04T14:48:24.597Z,28.70
2023-06-04T14:50:54.511Z,28.60
2023-06-04T14:53:21.696Z,28.40
2023-06-04T14:55:48.612Z,28.40
2023-06-04T14:58:16.394Z,28.20
2023-06-04T15:00:43.460Z,28.00
2023-06-04T15:03:10.425Z,27.90
2023-06-04T15:05:37.401Z,27.90
2023-06-04T15:08:04.646Z,27.70
2023-06-04T15:10:32.292Z,27.60
2023-06-04T15:12:59.128Z,27.60
2023-06-04T15:15:27.158Z,27.40
2023-06-04T15:17:54.141Z,27.20
2023-06-04T15:20:21.262Z,27.20
2023-06-04T15:22:48.992Z,27.20
2023-06-04T15:25:16.019Z,27.30
2023-06-04T15:27:42.993Z,27.30
2023-06-04T15:30:10.153Z,27.30
2023-06-04T15:32:37.178Z,27.30
2023-06-04T15:35:05.264Z,27.30
2023-06-04T15:37:32.154Z,27.20
2023-06-04T15:40:00.816Z,27.20
2023-06-04T15:42:28.054Z,27.20
2023-06-04T15:44:55.174Z,27.10
2023-06-04T15:47:22.128Z,27.20
2023-06-04T15:49:49.033Z,27.10
2023-06-04T15:52:16.173Z,27.10
2023-06-04T15:54:46.454Z,27.20
2023-06-04T15:57:14.420Z,27.10
2023-06-04T15:59:42.270Z,27.10
2023-06-04T16:02:09.433Z,27.10
2023-06-04T16:04:36.826Z,27.10
2023-06-04T16:07:06.078Z,27.10
2023-06-04T16:09:33.396Z,27.00
2023-06-04T16:12:00.456Z,27.00
2023-06-04T16:14:27.353Z,27.00
2023-06-04T16:16:54.326Z,26.90
2023-06-04T16:19:21.297Z,26.80
2023-06-04T16:21:48.186Z,26.80
2023-06-04T16:24:15.356Z,26.70
2023-06-04T16:26:42.285Z,26.70
2023-06-04T16:29:09.308Z,26.60
2023-06-04T16:31:36.657Z,26.70
2023-06-04T16:34:03.590Z,26.50
2023-06-04T16:36:31.938Z,26.50
2023-06-04T16:39:00.772Z,26.50
2023-06-04T16:41:28.114Z,26.50
2023-06-04T16:43:54.993Z,26.50
2023-06-04T16:46:21.908Z,26.50
2023-06-04T16:48:48.840Z,26.40
2023-06-04T16:51:15.767Z,26.40
2023-06-04T16:53:42.814Z,26.40
2023-06-04T16:56:10.977Z,26.20
2023-06-04T16:58:39.614Z,26.30
2023-06-04T17:01:09.709Z,26.10
2023-06-04T17:03:37.052Z,26.10
2023-06-04T17:06:04.888Z,26.10
2023-06-04T17:08:31.957Z,26.00
2023-06-04T17:10:58.800Z,26.00
2023-06-04T17:13:25.777Z,25.90
2023-06-04T17:15:52.802Z,25.90
2023-06-04T17:18:21.583Z,25.80
2023-06-04T17:20:48.603Z,25.80
2023-06-04T17:23:26.999Z,25.80
2023-06-04T17:25:54.637Z,25.70
2023-06-04T17:28:21.737Z,25.60
2023-06-04T17:30:49.322Z,25.60
2023-06-04T17:33:16.540Z,25.50
2023-06-04T17:35:43.666Z,25.50
2023-06-04T17:38:11.017Z,25.40
2023-06-04T17:40:38.322Z,25.40
2023-06-04T17:43:05.740Z,25.30
2023-06-04T17:45:35.613Z,25.20
2023-06-04T17:48:02.451Z,25.20
2023-06-04T17:50:29.373Z,25.10
2023-06-04T17:52:58.051Z,25.20
2023-06-04T17:55:27.120Z,25.10
2023-06-04T17:57:56.787Z,25.00
2023-06-04T18:00:23.872Z,25.00
2023-06-04T18:02:51.021Z,25.10
2023-06-04T18:05:18.111Z,25.10
2023-06-04T18:07:46.528Z,25.10
2023-06-04T18:10:15.238Z,25.00
2023-06-04T18:12:46.159Z,25.00
2023-06-04T18:15:16.224Z,25.00
2023-06-04T18:17:43.858Z,24.80
2023-06-04T18:20:12.031Z,24.90
2023-06-04T18:22:39.587Z,24.80
2023-06-04T18:25:08.999Z,24.70
2023-06-04T18:27:36.910Z,24.70
2023-06-04T18:30:06.129Z,24.70
2023-06-04T18:32:33.501Z,24.60
2023-06-04T18:35:00.441Z,24.60
2023-06-04T18:37:27.989Z,24.40
2023-06-04T18:39:55.344Z,24.30
2023-06-04T18:44:57.520Z,24.00
2023-06-04T18:47:24.432Z,24.00
2023-06-04T18:49:51.417Z,23.80
2023-06-04T18:52:18.214Z,23.80
2023-06-04T18:54:45.756Z,23.80
2023-06-04T18:57:14.749Z,23.70
2023-06-04T18:59:41.936Z,23.70
2023-06-04T19:02:08.988Z,23.60
2023-06-04T19:04:35.958Z,23.50
2023-06-04T19:07:06.134Z,23.50
2023-06-04T19:09:32.937Z,23.40
2023-06-04T19:11:59.771Z,23.40
2023-06-04T19:14:26.926Z,23.30
2023-06-04T19:16:53.961Z,23.10
2023-06-04T19:19:22.179Z,23.00
2023-06-04T19:21:53.345Z,23.00
2023-06-04T19:24:21.946Z,22.90
2023-06-04T19:26:52.178Z,22.90
2023-06-04T19:29:37.770Z,22.80
2023-06-04T19:32:05.052Z,22.80
2023-06-04T19:34:31.886Z,22.80
2023-06-04T19:36:58.792Z,22.70
2023-06-04T19:39:25.614Z,22.80
2023-06-04T19:41:52.463Z,22.70
2023-06-04T19:44:19.389Z,22.70
2023-06-04T19:46:49.256Z,22.70
2023-06-04T19:49:16.525Z,22.60
2023-06-04T19:51:43.340Z,22.70
2023-06-04T19:54:10.408Z,22.70
2023-06-04T19:56:41.203Z,22.70
2023-06-04T19:59:07.999Z,22.70
2023-06-04T20:01:35.148Z,22.60
2023-06-04T20:04:02.229Z,22.70
2023-06-04T20:06:29.303Z,22.60
2023-06-04T20:08:56.507Z,22.60
2023-06-04T20:11:24.298Z,22.70
2023-06-04T20:13:51.141Z,22.60
2023-06-04T20:16:18.081Z,22.60
2023-06-04T20:18:45.017Z,22.60
2023-06-04T20:21:11.834Z,22.50
2023-06-04T20:23:38.753Z,22.50
2023-06-04T20:26:05.695Z,22.60
2023-06-04T20:28:32.579Z,22.50
2023-06-04T20:30:59.480Z,22.50
2023-06-04T20:33:29.043Z,22.50
2023-06-04T20:35:55.937Z,22.50
2023-06-04T20:38:22.821Z,22.50
2023-06-04T20:40:49.812Z,22.50
2023-06-04T20:43:16.930Z,22.50
2023-06-04T20:45:43.968Z,22.50
2023-06-04T20:48:10.781Z,22.50
2023-06-04T20:50:37.765Z,22.50
2023-06-04T20:53:04.655Z,22.40
2023-06-04T20:55:31.655Z,22.40
2023-06-04T20:57:58.488Z,22.40
2023-06-04T21:00:28.153Z,22.40
2023-06-04T21:02:56.257Z,22.40
2023-06-04T21:05:23.384Z,22.40
2023-06-04T21:07:50.255Z,22.40
2023-06-04T21:10:17.070Z,22.40
2023-06-04T21:12:43.869Z,22.40
2023-06-04T21:15:11.111Z,22.40
2023-06-04T21:17:38.318Z,22.30
2023-06-04T21:20:05.794Z,22.30
2023-06-04T21:22:32.671Z,22.30
2023-06-04T21:24:59.628Z,22.30
2023-06-04T21:27:26.489Z,22.40
2023-06-04T21:29:53.297Z,22.30
2023-06-04T21:32:20.247Z,22.30
2023-06-04T21:34:47.186Z,22.40
2023-06-04T21:37:14.077Z,22.20
2023-06-04T21:39:40.912Z,22.20
2023-06-04T21:42:07.785Z,22.20
2023-06-04T21:44:34.945Z,22.20
2023-06-04T21:47:02.355Z,22.20
2023-06-04T21:49:29.153Z,22.20
2023-06-04T21:51:56.042Z,22.20
2023-06-04T21:54:23.206Z,22.20
2023-06-04T21:56:50.036Z,22.10
2023-06-04T21:59:16.915Z,22.20
2023-06-04T22:01:44.005Z,22.20
2023-06-04T22:04:11.269Z,22.10
2023-06-04T22:06:38.274Z,22.10
2023-06-04T22:09:05.178Z,22.20
2023-06-04T22:11:32.085Z,22.10
2023-06-04T22:13:58.961Z,22.10
2023-06-04T22:16:26.049Z,22.10
2023-06-04T22:18:54.043Z,22.10
2023-06-04T22:21:21.418Z,22.10
2023-06-04T22:23:48.617Z,22.10
2023-06-04T22:26:25.015Z,22.10
2023-06-04T22:29:02.677Z,22.10
2023-06-04T22:31:29.595Z,22.10
2023-06-04T22:33:56.426Z,22.10
2023-06-04T22:36:23.313Z,22.00
2023-06-04T22:38:50.116Z,22.00
2023-06-04T22:41:16.904Z,22.00
2023-06-04T22:43:43.735Z,21.90
2023-06-04T22:46:10.642Z,21.90
2023-06-04T22:48:37.505Z,21.80
2023-06-04T22:51:06.079Z,21.80
2023-06-04T22:53:33.222Z,21.80
2023-06-04T22:56:00.287Z,21.80
2023-06-04T22:58:27.145Z,21.80
2023-06-04T23:00:54.107Z,21.80
2023-06-04T23:03:21.073Z,21.70
2023-06-04T23:05:48.115Z,21.70
2023-06-04T23:08:14.936Z,21.70
2023-06-04T23:10:41.785Z,21.70
2023-06-04T23:13:08.826Z,21.60
2023-06-04T23:15:36.425Z,21.70
2023-06-04T23:18:03.278Z,21.60
2023-06-04T23:20:30.058Z,21.70
2023-06-04T23:22:57.029Z,21.60
2023-06-04T23:25:23.843Z,21.70
2023-06-04T23:27:50.702Z,21.60
2023-06-04T23:30:19.811Z,21.60
2023-06-04T23:32:47.662Z,21.50
2023-06-04T23:35:14.543Z,21.60
2023-06-04T23:37:41.832Z,21.60
2023-06-04T23:40:08.967Z,21.60
2023-06-04T23:42:35.900Z,21.60
2023-06-04T23:45:02.782Z,21.60
2023-06-04T23:47:29.612Z,21.50
2023-06-04T23:49:58.341Z,21.60
2023-06-04T23:52:25.493Z,21.50
2023-06-04T23:54:52.404Z,21.50
2023-06-04T23:57:19.194Z,21.50
2023-06-04T23:59:46.028Z,21.50
